WE des GARAGNAS - CDL Marlhes - Bois du Suc (42) - D

Date : 13/10/2012
Distance : 3,100 km

Place Nom Licence Catégorie Club Temps min/km CN à J-60 Points Différence Nouveau CN
1 DERMINE Jean 1848 H60 3801RA 0:27:35 8'53 6210 5427 -783 6264
2 BERRARD Anna 19762 D16 2607RA 0:28:18 9'07 4335 5290 +955 4703
3 BODY Mathilde 10184 D16 7305RA 0:29:24 9'29 5246 5092 -154 5342
4 STARKE Paula 26505 D16 6913RA 0:29:47 9'36 5026 3753
5 DUDOIGNON Chloé 18089 D14 2605RA 0:31:00 10'00 3474 4829 +1355 3728
6 MASLIAH Raphaël 26389 H14 2610RA 0:32:07 10'21 4478 4661 +183 4622
7 BASSET Juliette 12398 D14 6911RA 0:32:43 10'33 3675 4576 +901 3853
8 BORNARD Nicolas 9403 H14 7305RA 0:33:14 10'43 4235 4505 +270 4373
9 BORNARD Julie 9402 D16 7305RA 0:33:26 10'47 4665 4478 -187 4693
10 DROIN Solène 17925 D16 4201RA 0:33:52 10'55 5077 4420 -657 5257
11 VALETTE Marion 10430 D16 6913RA 0:34:54 11'15 3815 4289 +474 4088
12 RIVOLLIER Isaline 22451 D16 4201RA 0:36:05 11'38 4296 4149 -147 4267
13 THIEVENAZ Roland 9230 H60 3811RA 0:36:31 11'46 4942 4099 -843 4799
14 BASTARD Robert 3060 H60 6911RA 0:37:56 12'14 4979 3946 -1033 4346
15 ANTOINE Alain 1270 H65 2605RA 0:41:14 13'18 4932 3631 -1301 4932
16 BONORA Marine 11542 D16 6906RA 0:42:03 13'33 3660 3560 -100 3659
17 REYNAUD Renée 8868 D55 6307AU 0:42:43 13'46 4271 3504 -767 4152
18 JACOMINO Mireille 277 D50 3801RA 0:48:04 15'30 4101 3114 -987 4047
19 EUZEN J-Paul 16403 H70 6911RA 0:48:21 15'35 2652 3096 +444 2765
20 RAGACHE Jean-Claude 7147 H60 3811RA 0:50:06 16'09 4514 2988 -1526 4272
21 COMBET Annie 813 D50 4203RA 0:50:45 16'22 4533 2950 -1583 4473
22 LEVESY Salomé 23127 D14 3810RA 0:51:54 16'44 2609 2884 +275 2613
23 CORBIN Emma 20916 D14 2604RA 0:52:37 16'58 2746 2845 +99 2656
24 ANNE Roger 1673 H60 0111RA 0:53:29 17'15 4476 2799 -1677 4185
25 KERN-GILLARD Etienne 12402 H14 6911RA 0:56:56 18'21 2125 2629 +504 2284
26 DERMINE Isabelle 1847 D50 3801RA 0:58:33 18'53 4931 2557 -2374 4769
27 VALETTE Isabelle 2270 D40 6913RA 0:59:11 19'05 3422 2529 -893 3370
28 GENNARO Leslie 20863 D16 3811RA 0:59:43 19'15 3304 2507 -797 3304
29 PLAGNE Eliane 20 D60 4204RA 1:01:33 19'51 0 2432 0
30 BORNARD Fabienne 8427 D40 7305RA 1:02:36 20'11 2919 2391 -528 2919
31 BOURRIN M-Francoise 807 D55 4203RA 1:04:04 20'40 3111 2337 -774 3194
32 MERCEY Bernard 11746 H70 4201RA 1:04:17 20'44 0 2329 2236
33 JOURDAN J-Marc 4596 H60 2605RA 1:04:27 20'47 2323 0
34 PLAGNE Christian 19 H60 4204RA 1:05:31 21'08 0 2285 2194
35 GATY Daniele 841 D55 4203RA 1:06:41 21'30 4018 2245 -1773 4018
36 BOURRIN Michel 809 H60 4203RA 1:07:31 21'46 1673 2217 +544 1795
37 FERRAND M-Christine 8626 D55 3811RA 1:09:07 22'17 3242 2166 -1076 2940
38 GROSJEAN A-Marie 12059 D70 6913RA 1:13:18 23'38 2783 2042 -741 2733
39 BONNET-LIGEON Michele 11747 D60 4201RA 1:16:02 24'31 0 1969 1855
40 CERET Martine 4597 D55 4203RA 1:18:57 25'28 3330 1896 -1434 3318
41 GUET Martine 11810 D55 6906RA 1:23:23 26'53 2828 1795 -1033 2763
42 LENFANT Chantal 10264 D55 3811RA 1:25:14 27'29 3008 1756 -1252 2740
43 RIVIERE Estelle 22572 D21 2607RA 1:29:44 28'56 0 1668 1635
44 KERN-GILLARD Elisabe 12399 D50 6911RA 1:33:48 30'15 1722 1596 -126 1677
DUCRET Romain 12884 H16 6906RA pm None 2536 0 2536
THIEVENAZ Francoise 19672 D60 3811RA pm None 1864 0 1831
BOUILLET Geneviève 8944 D60 3811RA pm None 2499 0 2499
DROIN Marie-helene 21209 D45 4201RA pm None 0 0 1140
RINGOT Veronique 12356 D45 6913RA pm None 3261 0 2569
DESCOURVIERES Perrine 25550 D16 7407RA pm None 1928 0 1949